| Date | Time | Temp. (oF) | Dew Point (oF) | Rel. Hum. (%) | Press. (in.) | Wind Dir. | Wind Speed (mph) | Hourly Rainfall (in.) |
|
|---|---|---|---|---|---|---|---|---|---|
| 1 | 07/30 | 00:00 | 75 | 60 | 61 | 29.89 | NE | 7 | 0.00 |
| 2 | 07/29 | 23:00 | 76 | 61 | 60 | 29.88 | N | 4 | 0.00 |
| 3 | 07/29 | 22:00 | 79 | 61 | 55 | 29.87 | NNE | 4 | 0.00 |
| 4 | 07/29 | 21:00 | 81 | 63 | 55 | 29.85 | NNE | 5 | 0.00 |
| 5 | 07/29 | 20:00 | 84 | 64 | 52 | 29.81 | NNW | 3 | 0.00 |
| 6 | 07/29 | 19:00 | 87 | 67 | 52 | 29.80 | NE | 8 | 0.00 |
| 7 | 07/29 | 18:00 | 87 | 65 | 49 | 29.80 | N | 6 | 0.00 |
| 8 | 07/29 | 17:00 | 88 | 69 | 54 | 29.79 | NNW | 8 | 0.00 |
| 9 | 07/29 | 16:00 | 89 | 71 | 56 | 29.80 | N | 7 | 0.00 |
| 10 | 07/29 | 15:00 | 89 | 72 | 58 | 29.82 | N | 7 | 0.00 |
| 11 | 07/29 | 14:00 | 88 | 73 | 62 | 29.84 | NNW | 3 | 0.00 |
| 12 | 07/29 | 13:00 | 86 | 75 | 70 | 29.85 | WNW | 4 | 0.00 |
| 13 | 07/29 | 12:00 | 86 | 74 | 69 | 29.86 | WNW | 5 | 0.00 |
| 14 | 07/29 | 11:00 | 84 | 74 | 73 | 29.87 | WNW | 4 | 0.00 |
| 15 | 07/29 | 10:00 | 84 | 74 | 73 | 29.87 | W | 4 | 0.00 |
| 16 | 07/29 | 09:00 | 82 | 74 | 77 | 29.88 | SW | 4 | 0.00 |
| 17 | 07/29 | 08:00 | 78 | 75 | 92 | 29.88 | SW | 0 | 0.00 |
| 18 | 07/29 | 07:00 | 77 | 74 | 91 | 29.87 | WNW | 0 | 0.00 |
| 19 | 07/29 | 06:00 | 77 | 72 | 87 | 29.86 | W | 0 | 0.00 |
| 20 | 07/29 | 05:00 | 77 | 74 | 92 | 29.85 | W | 2 | 0.00 |
| 21 | 07/29 | 04:00 | 77 | 74 | 92 | 29.84 | S | 4 | 0.00 |
| 22 | 07/29 | 03:00 | 77 | 75 | 94 | 29.86 | SW | 4 | 0.00 |
| 23 | 07/29 | 02:00 | 78 | 75 | 92 | 29.88 | WSW | 4 | 0.00 |
| 24 | 07/29 | 01:00 | 79 | 75 | 89 | 29.88 | SW | 3 | 0.00 |